Time;durP1;ratioP1;P1;durP2;ratioP2;P2;SDS_P1;SDS_P2;PMS_P1;PMS_P2;Temp;Humidity;BMP_temperature;BMP_pressure;BME280_temperature;BME280_humidity;BME280_pressure;Samples;Min_cycle;Max_cycle;Signal;HPM_P1;HPM_P2
2022/11/10 00:02:18;;;;;;;41.50;22.90;;;;;;;8.44;79.30;99835.00;210773;1299;140362;-71
2022/11/10 00:07:26;;;;;;;43.60;23.20;;;;;;;8.45;79.34;99839.39;210603;1292;141013;-74
2022/11/10 00:12:32;;;;;;;54.70;30.70;;;;;;;8.46;79.27;99838.77;210665;1284;140831;-73
2022/11/10 00:17:37;;;;;;;40.60;23.40;;;;;;;8.48;79.53;99841.67;210749;1292;141795;-72
2022/11/10 00:22:40;;;;;;;36.60;21.90;;;;;;;8.46;79.51;99836.55;210764;1298;139810;-72
2022/11/10 00:27:44;;;;;;;39.20;21.00;;;;;;;8.44;79.40;99840.84;210781;1293;140968;-70
2022/11/10 00:32:47;;;;;;;47.40;23.60;;;;;;;8.37;79.41;99842.74;210717;1292;237383;-74
2022/11/10 00:37:51;;;;;;;38.40;23.20;;;;;;;8.35;79.50;99841.30;210450;1293;140295;-71
2022/11/10 00:42:55;;;;;;;29.00;18.00;;;;;;;8.36;79.78;99839.52;210715;1281;139082;-70
2022/11/10 00:47:58;;;;;;;38.30;23.50;;;;;;;8.37;79.65;99838.13;210844;1292;140647;-70
2022/11/10 00:53:03;;;;;;;63.70;27.00;;;;;;;8.43;79.91;99840.33;210592;1285;141232;-72
2022/11/10 00:58:07;;;;;;;30.60;19.00;;;;;;;8.47;79.56;99839.45;210694;1292;141824;-75
2022/11/10 01:03:15;;;;;;;40.10;23.40;;;;;;;8.46;79.87;99845.38;210555;1292;140394;-73
2022/11/10 01:08:19;;;;;;;43.10;25.40;;;;;;;8.49;79.96;99844.00;210396;1292;140973;-74
2022/11/10 01:13:22;;;;;;;56.30;30.20;;;;;;;8.57;80.07;99837.66;210511;1292;143165;-74
2022/11/10 01:18:27;;;;;;;43.80;23.60;;;;;;;8.66;79.96;99843.00;210524;1292;142538;-74
2022/11/10 01:23:31;;;;;;;37.20;21.50;;;;;;;8.71;79.86;99846.55;210685;1292;141100;-71
2022/11/10 01:28:36;;;;;;;45.30;23.10;;;;;;;8.72;79.90;99849.45;210407;1283;140067;-69
2022/11/10 01:33:40;;;;;;;46.20;21.60;;;;;;;8.70;79.87;99849.68;210696;1296;140471;-70
2022/11/10 01:38:43;;;;;;;36.60;20.90;;;;;;;8.70;79.70;99853.48;210499;1292;141628;-70
2022/11/10 01:43:47;;;;;;;38.60;21.70;;;;;;;8.71;79.76;99857.31;210590;1298;141855;-71
2022/11/10 01:48:58;;;;;;;40.70;23.70;;;;;;;8.71;79.63;99851.59;209370;1292;139471;-72
2022/11/10 01:54:09;;;;;;;39.10;21.90;;;;;;;8.72;79.70;99848.11;207579;1294;139435;-72
2022/11/10 01:59:16;;;;;;;40.60;21.50;;;;;;;8.64;79.57;99859.98;207436;1288;142636;-72
2022/11/10 02:04:20;;;;;;;37.50;22.20;;;;;;;8.62;79.75;99864.66;209932;1284;141375;-74
2022/11/10 02:09:24;;;;;;;39.70;22.30;;;;;;;8.66;79.85;99870.96;210621;1286;141727;-74
2022/11/10 02:14:27;;;;;;;37.60;24.80;;;;;;;8.70;79.99;99873.84;210777;1292;140316;-74
2022/11/10 02:19:39;;;;;;;43.00;22.80;;;;;;;8.74;80.10;99882.15;210743;1283;139911;-72
2022/11/10 02:24:42;;;;;;;35.10;21.10;;;;;;;8.76;79.92;99884.66;210816;1293;139729;-72
2022/11/10 02:29:46;;;;;;;34.60;20.50;;;;;;;8.80;79.84;99885.16;210885;1289;140323;-74
2022/11/10 02:34:50;;;;;;;36.30;20.50;;;;;;;8.86;79.94;99891.23;210698;1292;140353;-73
2022/11/10 02:39:53;;;;;;;39.30;21.00;;;;;;;8.90;79.93;99896.20;210756;1292;140594;-72
2022/11/10 02:44:58;;;;;;;36.00;20.10;;;;;;;8.95;80.13;99900.83;210849;1300;140542;-73
2022/11/10 02:50:01;;;;;;;39.40;21.30;;;;;;;8.96;80.07;99909.73;210948;1291;140933;-73
2022/11/10 02:55:05;;;;;;;36.50;21.50;;;;;;;8.98;79.86;99921.54;211032;1292;141470;-73
2022/11/10 03:00:09;;;;;;;35.30;21.30;;;;;;;8.99;79.58;99909.13;210912;1299;141045;-73
2022/11/10 03:05:13;;;;;;;40.60;22.30;;;;;;;9.04;79.87;99922.83;210952;1292;140590;-72
2022/11/10 03:10:17;;;;;;;38.10;20.20;;;;;;;9.07;79.96;99922.56;210858;1292;139856;-70
2022/11/10 03:15:21;;;;;;;36.60;20.30;;;;;;;9.06;79.91;99918.06;210846;1292;140289;-69
2022/11/10 03:20:24;;;;;;;41.20;20.20;;;;;;;9.07;79.85;99924.97;210745;1299;140506;-69
2022/11/10 03:25:29;;;;;;;31.60;18.30;;;;;;;9.11;79.84;99924.98;210689;1292;142182;-69
2022/11/10 03:30:33;;;;;;;38.50;19.80;;;;;;;9.13;79.88;99931.67;208016;1295;139933;-69
2022/11/10 03:35:37;;;;;;;34.10;18.10;;;;;;;9.10;80.13;99941.11;207844;1282;139481;-72
2022/11/10 03:40:41;;;;;;;38.50;20.50;;;;;;;9.06;80.53;99945.77;208076;1283;141033;-72
2022/11/10 03:46:04;;;;;;;36.50;23.00;;;;;;;9.05;80.57;99940.65;207749;1290;140564;-71
2022/11/10 03:51:08;;;;;;;37.00;18.30;;;;;;;9.06;80.76;99945.77;207629;1285;140560;-71
2022/11/10 03:56:12;;;;;;;38.80;21.90;;;;;;;9.08;81.06;99947.63;207470;1294;141128;-71
2022/11/10 04:01:16;;;;;;;32.20;18.10;;;;;;;9.04;81.12;99952.69;208566;1283;141624;-70
2022/11/10 04:17:04;;;;;;;38.20;19.40;;;;;;;9.13;81.78;99959.54;210032;1292;141581;-70
2022/11/10 04:23:25;;;;;;;30.90;19.60;;;;;;;9.20;82.09;99964.27;207583;1289;140091;-71
2022/11/10 04:27:31;;;;;;;30.40;18.50;;;;;;;9.25;81.94;99962.35;208949;1292;235012;-71
2022/11/10 04:32:35;;;;;;;40.80;21.60;;;;;;;9.27;82.05;99962.23;210865;1292;139224;-71
2022/11/10 04:37:39;;;;;;;34.40;20.90;;;;;;;9.23;81.92;99969.52;210581;1292;140100;-71
2022/11/10 04:42:42;;;;;;;29.60;17.90;;;;;;;9.26;82.18;99976.58;210865;1292;140236;-71
2022/11/10 04:47:46;;;;;;;31.80;21.10;;;;;;;9.31;82.45;99983.33;210772;1286;141360;-71
2022/11/10 04:52:50;;;;;;;34.20;18.20;;;;;;;9.38;82.44;99983.71;210995;1293;140839;-71
2022/11/10 04:57:54;;;;;;;35.50;18.00;;;;;;;9.40;82.73;99982.57;210804;1292;140212;-72
2022/11/10 05:02:59;;;;;;;37.10;20.10;;;;;;;9.43;82.87;99984.06;210601;1292;139407;-72
2022/11/10 05:08:03;;;;;;;32.50;20.20;;;;;;;9.46;82.70;99985.06;210490;1293;140584;-73
2022/11/10 05:13:07;;;;;;;33.40;20.20;;;;;;;9.51;82.84;99993.13;210325;1292;324169;-72
2022/11/10 05:18:10;;;;;;;35.80;18.50;;;;;;;9.51;82.70;99995.75;209246;1292;139841;-71
2022/11/10 05:28:38;;;;;;;32.70;17.90;;;;;;;9.41;82.79;100008.23;209083;1292;140186;-72
2022/11/10 05:33:42;;;;;;;33.50;18.60;;;;;;;9.40;83.20;100014.96;210684;1292;141251;-72
2022/11/10 05:38:45;;;;;;;36.20;22.00;;;;;;;9.45;83.49;100020.23;210701;1289;140830;-72
2022/11/10 05:43:48;;;;;;;41.50;18.10;;;;;;;9.53;83.70;100025.70;208149;1276;140660;-73
2022/11/10 05:48:52;;;;;;;37.20;20.10;;;;;;;9.61;83.69;100033.08;207532;1283;141284;-72
2022/11/10 05:53:55;;;;;;;34.40;18.60;;;;;;;9.61;83.47;100043.88;210360;1285;140618;-74
2022/11/10 05:58:58;;;;;;;30.30;18.00;;;;;;;9.59;83.92;100052.66;210841;1283;140671;-71
2022/11/10 06:04:02;;;;;;;33.00;18.90;;;;;;;9.61;83.79;100061.13;210107;1292;141390;-74
2022/11/10 06:09:06;;;;;;;30.60;17.70;;;;;;;9.65;84.01;100058.59;211056;1289;140950;-73
2022/11/10 06:14:10;;;;;;;27.40;15.30;;;;;;;9.74;84.22;100069.48;210286;1292;140316;-76
2022/11/10 06:19:13;;;;;;;30.30;16.60;;;;;;;9.80;83.84;100074.84;210774;1290;140744;-71
2022/11/10 06:24:17;;;;;;;28.50;15.60;;;;;;;9.85;84.04;100090.27;210894;1282;139811;-70
2022/11/10 06:29:21;;;;;;;28.00;14.60;;;;;;;9.88;83.86;100099.21;210775;1292;248018;-72
2022/11/10 06:34:28;;;;;;;28.20;15.30;;;;;;;9.89;83.97;100104.73;210890;1292;236966;-74
2022/11/10 06:39:32;;;;;;;28.80;16.40;;;;;;;9.92;84.11;100116.30;210803;1292;143108;-73
2022/11/10 06:44:36;;;;;;;24.30;13.30;;;;;;;9.97;84.12;100121.33;210862;1289;141211;-72
2022/11/10 06:49:40;;;;;;;26.10;15.50;;;;;;;9.98;84.39;100132.42;211074;1297;141557;-71
2022/11/10 06:54:44;;;;;;;26.60;16.60;;;;;;;9.99;84.21;100142.90;211025;1289;143741;-72
2022/11/10 06:59:47;;;;;;;23.10;14.30;;;;;;;10.01;84.18;100146.81;210950;1289;140823;-72
2022/11/10 07:04:51;;;;;;;30.60;15.20;;;;;;;10.06;84.24;100161.29;210844;1289;141547;-72
2022/11/10 07:09:55;;;;;;;23.40;13.10;;;;;;;10.12;84.24;100164.55;209487;1290;140522;-71
2022/11/10 07:14:59;;;;;;;21.10;14.20;;;;;;;10.15;84.17;100176.77;207859;1283;141117;-72
2022/11/10 07:20:03;;;;;;;24.40;15.50;;;;;;;10.17;84.50;100178.48;209237;1291;139881;-71
2022/11/10 07:25:07;;;;;;;24.90;14.60;;;;;;;10.19;84.49;100186.59;209682;1291;140067;-73
2022/11/10 07:30:12;;;;;;;22.60;12.10;;;;;;;10.20;84.67;100190.60;208997;1291;140990;-74
2022/11/10 07:35:15;;;;;;;19.90;11.80;;;;;;;10.31;84.78;100195.18;210819;1285;140953;-78
2022/11/10 07:40:19;;;;;;;21.10;11.40;;;;;;;10.38;84.70;100202.08;210751;1289;142458;-74
2022/11/10 07:45:23;;;;;;;19.10;13.00;;;;;;;10.44;84.85;100201.66;210603;1291;141682;-73
2022/11/10 07:50:27;;;;;;;25.50;13.30;;;;;;;10.54;84.99;100209.06;210772;1289;160552;-75
2022/11/10 07:55:30;;;;;;;18.90;11.00;;;;;;;10.58;84.75;100218.70;211035;1293;139952;-73
2022/11/10 08:00:35;;;;;;;17.40;11.40;;;;;;;10.63;84.78;100230.45;209856;1296;141777;-74
2022/11/10 08:05:39;;;;;;;20.30;11.60;;;;;;;10.72;84.98;100231.52;210462;1296;140945;-73
2022/11/10 08:10:43;;;;;;;21.20;12.40;;;;;;;10.83;84.92;100236.31;210790;1292;141306;-73
2022/11/10 08:15:46;;;;;;;18.40;11.60;;;;;;;10.96;84.88;100247.57;211007;1292;140849;-71
2022/11/10 08:20:51;;;;;;;20.00;13.60;;;;;;;11.07;84.80;100253.40;210597;1299;141241;-73
2022/11/10 08:25:59;;;;;;;18.10;12.30;;;;;;;11.19;84.95;100265.90;210875;1279;141089;-71
2022/11/10 08:31:03;;;;;;;20.60;12.50;;;;;;;11.36;84.70;100271.53;210592;1284;140858;-70
2022/11/10 08:36:08;;;;;;;18.10;11.30;;;;;;;11.45;84.52;100283.93;210692;1291;142584;-74
2022/11/10 08:41:12;;;;;;;17.60;11.10;;;;;;;11.55;84.36;100290.62;210737;1292;140545;-71
2022/11/10 08:46:15;;;;;;;23.10;13.40;;;;;;;11.67;84.54;100294.48;210961;1295;140833;-66
2022/11/10 08:51:21;;;;;;;19.50;12.00;;;;;;;11.71;84.42;100305.77;211020;1292;140435;-74
2022/11/10 08:56:25;;;;;;;24.90;13.80;;;;;;;11.67;83.95;100309.70;210831;1291;142319;-72
2022/11/10 09:01:29;;;;;;;22.10;14.60;;;;;;;11.72;84.23;100318.88;210640;1282;143582;-69
2022/11/10 09:06:34;;;;;;;23.60;13.80;;;;;;;11.85;84.27;100327.67;210751;1292;141665;-73
2022/11/10 09:11:38;;;;;;;17.20;11.70;;;;;;;11.96;84.02;100338.30;210824;1292;142262;-72
2022/11/10 09:16:41;;;;;;;20.50;11.50;;;;;;;12.06;84.12;100347.94;208172;1292;140121;-71
2022/11/10 09:21:45;;;;;;;19.70;11.50;;;;;;;12.14;83.78;100355.24;207496;1299;140540;-71
2022/11/10 09:26:49;;;;;;;18.20;11.00;;;;;;;12.08;83.60;100363.00;207556;1291;140518;-74
2022/11/10 09:31:53;;;;;;;17.60;11.50;;;;;;;12.03;83.69;100367.63;208647;1283;142280;-73
2022/11/10 09:36:56;;;;;;;12.40;9.10;;;;;;;11.99;83.91;100374.23;210867;1292;154269;-71
2022/11/10 09:42:00;;;;;;;31.50;19.80;;;;;;;11.87;83.38;100374.01;207604;1291;141070;-70
2022/11/10 09:47:24;;;;;;;41.90;27.10;;;;;;;11.84;83.79;100371.02;207451;1291;153774;-73
2022/11/10 09:52:49;;;;;;;42.30;25.40;;;;;;;11.89;83.89;100378.55;208501;1292;143338;-71
2022/11/10 09:57:56;;;;;;;23.50;15.10;;;;;;;11.96;83.89;100383.52;207413;1299;141121;-70
2022/11/10 10:03:02;;;;;;;24.20;17.90;;;;;;;12.02;83.92;100384.05;207254;1285;143635;-70
2022/11/10 10:08:10;;;;;;;17.80;14.60;;;;;;;12.17;84.03;100392.23;207421;1291;143305;-72
2022/11/10 10:13:40;;;;;;;18.70;14.40;;;;;;;12.33;83.92;100393.98;209595;1283;248580;-75
2022/11/10 10:18:59;;;;;;;20.30;13.80;;;;;;;12.37;83.49;100399.27;210896;1290;141024;-72
2022/11/10 10:24:04;;;;;;;19.30;13.10;;;;;;;12.45;83.48;100402.64;210917;1292;141238;-72
2022/11/10 10:29:45;;;;;;;18.70;12.00;;;;;;;12.47;83.02;100409.89;210922;1295;140942;-70
2022/11/10 10:34:49;;;;;;;20.80;12.20;;;;;;;12.46;82.90;100417.73;207424;1283;140088;-73
2022/11/10 10:39:54;;;;;;;14.00;11.70;;;;;;;12.55;82.82;100417.70;207759;1292;141256;-67
2022/11/10 10:45:23;;;;;;;16.60;12.40;;;;;;;12.62;82.75;100415.59;210818;1292;140989;-71
2022/11/10 10:50:34;;;;;;;13.00;10.30;;;;;;;12.72;82.76;100418.72;210870;1291;141455;-71
2022/11/10 10:56:03;;;;;;;20.10;11.80;;;;;;;12.78;82.39;100414.21;210923;1295;141476;-71
2022/11/10 11:01:14;;;;;;;19.20;12.40;;;;;;;12.89;82.21;100425.66;211020;1281;140638;-70
2022/11/10 11:06:18;;;;;;;12.40;9.60;;;;;;;12.85;81.83;100428.48;211082;1292;141226;-71
2022/11/10 11:11:31;;;;;;;16.10;10.90;;;;;;;12.85;81.86;100425.90;211107;1292;139862;-71
2022/11/10 11:16:56;;;;;;;15.00;9.20;;;;;;;12.98;81.83;100426.91;210962;1297;141745;-71
2022/11/10 11:22:15;;;;;;;12.80;9.90;;;;;;;13.17;81.78;100429.66;211022;1283;141676;-71
2022/11/10 11:27:48;;;;;;;11.20;8.90;;;;;;;13.39;81.76;100427.30;211093;1290;140421;-70
2022/11/10 11:33:27;;;;;;;10.70;9.40;;;;;;;13.56;81.41;100436.48;210824;1290;141261;-71
2022/11/10 11:38:53;;;;;;;13.80;9.20;;;;;;;13.66;80.95;100435.30;211035;1292;245768;-71
2022/11/10 11:44:05;;;;;;;10.20;8.90;;;;;;;13.57;80.26;100446.61;209107;1282;140631;-70
2022/11/10 11:49:46;;;;;;;11.00;8.30;;;;;;;13.48;79.89;100440.48;207872;1295;140196;-70
2022/11/10 11:54:56;;;;;;;10.70;8.40;;;;;;;13.49;80.02;100444.78;207920;1288;143290;-70
2022/11/10 12:00:10;;;;;;;11.20;7.30;;;;;;;13.54;79.99;100453.30;211051;1295;139484;-71
2022/11/10 12:05:35;;;;;;;12.00;6.90;;;;;;;13.51;79.52;100459.14;210934;1297;140388;-71
2022/11/10 12:11:11;;;;;;;9.40;8.20;;;;;;;13.47;79.22;100455.58;208226;1295;140868;-70
2022/11/10 12:16:22;;;;;;;11.80;8.00;;;;;;;13.47;79.02;100459.42;207584;1282;139228;-68
2022/11/10 12:21:33;;;;;;;8.60;7.40;;;;;;;13.61;78.85;100461.91;207834;1282;141244;-70
2022/11/10 12:26:42;;;;;;;9.20;7.70;;;;;;;13.62;78.57;100474.30;208395;1289;139999;-70
2022/11/10 12:31:50;;;;;;;12.70;7.60;;;;;;;13.51;78.65;100487.31;210978;1292;140535;-70
2022/11/10 12:36:57;;;;;;;9.80;8.10;;;;;;;13.42;78.52;100488.20;210952;1292;139877;-71
2022/11/10 12:42:01;;;;;;;;;;;;;;;13.28;78.31;100495.55;210975;1292;141103;-69
2022/11/10 12:47:13;;;;;;;7.60;6.00;;;;;;;13.18;78.29;100508.31;211785;1292;126618;-69
2022/11/10 12:52:31;;;;;;;10.70;7.00;;;;;;;13.15;78.22;100507.13;210948;1292;140372;-70
2022/11/10 12:57:36;;;;;;;11.20;6.70;;;;;;;13.18;78.13;100504.83;211031;1292;235434;-70
2022/11/10 13:02:45;;;;;;;5.50;5.00;;;;;;;13.22;78.09;100506.90;210966;1295;141546;-69
2022/11/10 13:08:04;;;;;;;12.20;5.00;;;;;;;13.20;78.12;100513.55;210954;1292;140116;-70
2022/11/10 13:13:16;;;;;;;9.10;6.00;;;;;;;13.15;77.98;100517.27;210974;1292;140533;-70
2022/11/10 13:18:25;;;;;;;10.90;6.10;;;;;;;13.12;77.75;100522.16;210992;1291;139595;-70
2022/11/10 13:23:51;;;;;;;7.50;5.20;;;;;;;13.14;77.70;100520.32;210981;1281;223138;-70
2022/11/10 13:28:58;;;;;;;5.30;4.70;;;;;;;13.11;77.58;100529.73;211060;1292;141772;-69
2022/11/10 13:34:09;;;;;;;6.80;5.20;;;;;;;13.07;77.50;100537.08;211175;1295;139726;-70
2022/11/10 13:39:22;;;;;;;10.60;6.60;;;;;;;13.02;77.09;100537.69;209774;1297;140387;-69
2022/11/10 13:44:40;;;;;;;9.60;5.70;;;;;;;13.17;77.26;100544.38;210467;1281;140375;-70
2022/11/10 13:50:03;;;;;;;;;;;;;;;13.37;76.86;100553.11;211056;1295;140491;-71
2022/11/10 13:55:19;;;;;;;9.10;6.70;;;;;;;13.45;76.64;100569.31;211774;1293;126410;-70
2022/11/10 14:00:29;;;;;;;10.40;8.90;;;;;;;13.51;76.83;100577.41;210989;1289;140392;-70
2022/11/10 14:05:37;;;;;;;5.70;5.30;;;;;;;13.55;76.91;100579.88;210992;1290;140894;-70
2022/11/10 14:10:49;;;;;;;7.10;5.60;;;;;;;13.64;77.23;100590.38;210934;1292;139655;-70
2022/11/10 14:15:54;;;;;;;6.10;5.50;;;;;;;13.64;76.85;100602.43;211062;1291;139901;-70
2022/11/10 14:21:00;;;;;;;7.60;4.50;;;;;;;13.51;76.18;100605.77;209384;1292;140860;-70
2022/11/10 14:26:16;;;;;;;4.40;3.60;;;;;;;13.35;76.14;100608.52;209014;1289;140305;-70
2022/11/10 14:31:23;;;;;;;7.10;3.70;;;;;;;13.12;75.58;100608.58;210845;1289;139982;-70
2022/11/10 14:36:27;;;;;;;9.00;3.70;;;;;;;12.84;75.45;100615.48;210915;1275;140895;-70
2022/11/10 14:41:31;;;;;;;5.30;4.40;;;;;;;12.58;75.50;100622.07;210767;1288;140607;-70
2022/11/10 14:46:35;;;;;;;3.90;3.40;;;;;;;12.34;75.55;100632.44;210898;1293;141029;-70
2022/11/10 14:51:40;;;;;;;4.40;4.00;;;;;;;12.16;75.64;100641.50;210791;1289;140330;-70
2022/11/10 14:56:46;;;;;;;8.30;5.70;;;;;;;12.03;75.72;100652.73;210832;1298;141971;-70
2022/11/10 15:01:56;;;;;;;6.70;5.20;;;;;;;11.87;75.96;100660.96;210673;1297;141124;-70
2022/11/10 15:07:00;;;;;;;10.50;6.90;;;;;;;11.74;76.13;100671.63;210916;1292;139547;-70
2022/11/10 15:12:26;;;;;;;9.10;5.70;;;;;;;11.65;76.23;100683.48;210983;1283;139254;-70
2022/11/10 15:17:49;;;;;;;5.90;4.90;;;;;;;11.55;76.52;100693.85;210863;1297;140923;-70
2022/11/10 15:22:56;;;;;;;9.70;5.30;;;;;;;11.47;76.53;100696.73;210155;1295;140986;-70
2022/11/10 15:28:12;;;;;;;;;;;;;;;11.36;76.63;100703.95;207855;1288;139415;-70
2022/11/10 15:33:30;;;;;;;11.90;6.10;;;;;;;11.21;76.75;100711.10;208301;1282;126749;-71
2022/11/10 15:38:34;;;;;;;6.30;5.60;;;;;;;11.06;76.75;100714.20;210782;1298;140124;-71
2022/11/10 15:43:39;;;;;;;10.00;5.20;;;;;;;11.00;77.03;100723.82;208971;1288;140796;-71
2022/11/10 15:48:47;;;;;;;6.70;5.60;;;;;;;10.88;76.81;100722.20;210712;1292;141504;-71
2022/11/10 15:53:54;;;;;;;8.40;5.30;;;;;;;10.78;77.18;100729.98;210877;1291;140218;-70
2022/11/10 15:59:00;;;;;;;5.30;4.80;;;;;;;10.67;77.24;100741.29;207936;1282;141182;-70
2022/11/10 16:04:14;;;;;;;8.80;6.00;;;;;;;10.57;77.14;100755.21;210784;1289;140655;-71
2022/11/10 16:09:20;;;;;;;10.60;6.60;;;;;;;10.45;77.23;100768.03;210269;1291;140594;-71
2022/11/10 16:14:29;;;;;;;8.90;6.10;;;;;;;10.34;77.41;100786.90;210932;1295;140227;-70
2022/11/10 16:19:36;;;;;;;12.50;6.90;;;;;;;10.27;77.42;100801.33;211007;1276;235131;-70
2022/11/10 16:24:41;;;;;;;9.90;6.00;;;;;;;10.19;77.72;100810.25;210727;1292;140326;-70
2022/11/10 16:29:46;;;;;;;9.50;6.90;;;;;;;10.15;77.87;100819.95;210664;1291;141655;-71
2022/11/10 16:34:49;;;;;;;7.50;6.20;;;;;;;10.10;77.51;100830.64;210859;1292;140691;-70
2022/11/10 16:39:53;;;;;;;8.00;6.40;;;;;;;10.04;77.50;100832.84;209903;1291;140777;-70
2022/11/10 16:44:58;;;;;;;12.30;7.00;;;;;;;9.91;77.17;100846.26;209147;1298;139555;-70
2022/11/10 16:50:05;;;;;;;10.70;7.10;;;;;;;9.78;77.84;100857.70;209906;1299;139731;-70
2022/11/10 16:55:12;;;;;;;11.20;8.50;;;;;;;9.70;77.52;100861.88;210844;1289;141007;-70
2022/11/10 17:00:17;;;;;;;15.00;7.90;;;;;;;9.62;77.71;100859.89;210731;1291;247376;-69
2022/11/10 17:05:21;;;;;;;8.40;6.50;;;;;;;9.56;77.86;100859.90;210675;1291;139924;-71
2022/11/10 17:10:26;;;;;;;10.60;7.70;;;;;;;9.48;77.73;100862.55;210791;1292;140191;-70
2022/11/10 17:15:34;;;;;;;11.50;7.60;;;;;;;9.40;77.84;100867.89;210570;1284;429286;-70
2022/11/10 17:20:40;;;;;;;17.90;8.10;;;;;;;9.34;77.98;100870.77;210819;1298;140866;-70
2022/11/10 17:25:44;;;;;;;8.60;7.10;;;;;;;9.27;77.72;100872.54;210807;1299;140619;-70
2022/11/10 17:30:48;;;;;;;14.10;8.20;;;;;;;9.19;77.90;100876.02;210640;1299;138987;-70
2022/11/10 17:35:54;;;;;;;14.90;9.70;;;;;;;9.07;77.90;100879.74;208577;1292;140721;-71
2022/11/10 17:40:58;;;;;;;38.80;11.00;;;;;;;8.98;77.77;100881.16;210842;1297;153015;-72
2022/11/10 17:46:03;;;;;;;14.10;7.40;;;;;;;8.88;77.61;100880.23;211013;1292;140632;-72
2022/11/10 17:51:12;;;;;;;10.40;7.80;;;;;;;8.79;77.98;100883.30;210872;1292;139465;-71
2022/11/10 17:56:16;;;;;;;16.20;8.30;;;;;;;8.70;77.72;100883.68;209834;1282;139890;-72
2022/11/10 18:01:21;;;;;;;11.90;8.10;;;;;;;8.58;77.55;100884.73;210424;1298;141320;-71
2022/11/10 18:06:25;;;;;;;11.70;8.70;;;;;;;8.48;77.85;100889.38;207508;1296;139939;-71
2022/11/10 18:11:29;;;;;;;12.10;9.50;;;;;;;8.39;78.17;100894.30;210383;1297;140198;-71
2022/11/10 18:16:35;;;;;;;9.90;8.70;;;;;;;8.28;77.92;100900.09;210886;1288;140921;-70
2022/11/10 18:21:41;;;;;;;16.30;9.70;;;;;;;8.20;77.87;100900.96;210689;1299;140015;-71
2022/11/10 18:26:46;;;;;;;13.40;9.20;;;;;;;8.16;78.16;100901.99;210871;1291;141019;-71
2022/11/10 18:31:49;;;;;;;12.10;9.10;;;;;;;8.10;78.11;100899.16;210843;1284;140069;-71
2022/11/10 18:36:54;;;;;;;13.20;9.30;;;;;;;8.01;78.11;100902.95;210882;1292;139545;-71
2022/11/10 18:41:58;;;;;;;18.10;9.20;;;;;;;7.94;78.35;100908.77;210781;1282;139982;-71
2022/11/10 18:47:06;;;;;;;12.30;9.40;;;;;;;7.91;78.11;100910.13;210878;1292;140146;-72
2022/11/10 18:52:10;;;;;;;15.70;11.20;;;;;;;7.84;78.53;100914.79;211084;1298;140944;-71
2022/11/10 18:57:15;;;;;;;14.10;10.00;;;;;;;7.77;78.68;100925.89;210833;1292;140530;-71
2022/11/10 19:02:20;;;;;;;13.20;9.90;;;;;;;7.69;78.18;100929.68;210783;1291;140268;-70
2022/11/10 19:07:24;;;;;;;12.60;9.70;;;;;;;7.62;78.21;100933.58;210659;1292;140088;-71
2022/11/10 19:12:30;;;;;;;11.90;8.80;;;;;;;7.55;78.31;100941.20;210753;1282;140146;-72
2022/11/10 19:17:35;;;;;;;12.50;8.60;;;;;;;7.46;78.28;100954.44;210804;1292;140053;-72
2022/11/10 19:22:40;;;;;;;13.20;9.40;;;;;;;7.37;78.08;100963.90;210875;1292;140097;-71
2022/11/10 19:27:45;;;;;;;14.50;10.40;;;;;;;7.30;78.43;100969.66;210894;1292;139545;-73
2022/11/10 19:32:50;;;;;;;17.60;10.60;;;;;;;7.23;78.52;100985.05;210747;1292;160369;-72
2022/11/10 19:37:55;;;;;;;12.30;9.90;;;;;;;7.15;78.52;100995.38;210628;1298;142008;-70
2022/11/10 19:42:59;;;;;;;20.20;11.20;;;;;;;7.05;78.28;100983.98;210710;1291;139743;-70
2022/11/10 19:48:04;;;;;;;19.00;9.10;;;;;;;7.03;78.81;100988.76;210655;1282;140777;-71
2022/11/10 19:53:10;;;;;;;15.90;10.50;;;;;;;7.03;78.69;100989.83;208486;1284;141892;-71
2022/11/10 19:58:16;;;;;;;15.90;9.80;;;;;;;6.99;79.09;100987.33;210088;1290;139360;-70
2022/11/10 20:03:20;;;;;;;21.00;11.10;;;;;;;6.90;78.83;100989.49;209513;1292;139046;-70
2022/11/10 20:08:27;;;;;;;19.70;10.70;;;;;;;6.82;78.92;100998.34;209310;1283;140545;-70
2022/11/10 20:13:31;;;;;;;15.90;11.60;;;;;;;6.76;78.78;100996.23;209512;1292;140586;-72
2022/11/10 20:18:38;;;;;;;22.10;11.60;;;;;;;6.69;78.96;100997.80;209373;1292;140336;-72
2022/11/10 20:23:43;;;;;;;16.00;11.80;;;;;;;6.60;79.26;100997.77;210970;1283;140898;-75
2022/11/10 20:28:47;;;;;;;17.30;10.20;;;;;;;6.57;79.57;100997.59;210957;1290;141279;-71
2022/11/10 20:33:57;;;;;;;20.30;11.10;;;;;;;6.59;79.62;101004.20;208680;1294;140558;-70
2022/11/10 20:39:04;;;;;;;16.10;10.50;;;;;;;6.62;79.92;101006.00;207940;1290;140260;-68
2022/11/10 20:44:07;;;;;;;16.30;12.30;;;;;;;6.65;80.33;101007.97;210785;1297;141091;-79
2022/11/10 20:49:12;;;;;;;20.90;11.80;;;;;;;6.64;80.12;101009.33;210740;1292;140183;-70
2022/11/10 20:54:17;;;;;;;19.80;12.60;;;;;;;6.65;80.34;101007.23;210765;1292;140859;-72
2022/11/10 20:59:21;;;;;;;14.30;11.10;;;;;;;6.72;80.53;101009.47;210666;1292;141694;-72
2022/11/10 21:04:25;;;;;;;15.20;10.40;;;;;;;6.67;80.47;101002.59;210973;1281;139482;-73
2022/11/10 21:09:28;;;;;;;16.40;13.00;;;;;;;6.63;80.37;100999.14;210959;1282;141704;-73
2022/11/10 21:14:32;;;;;;;15.50;11.80;;;;;;;6.64;80.40;101000.66;210798;1296;142738;-70
2022/11/10 21:19:36;;;;;;;19.20;10.80;;;;;;;6.63;80.57;101006.02;210759;1292;143348;-69
2022/11/10 21:24:40;;;;;;;19.70;11.70;;;;;;;6.64;80.72;101005.56;210573;1292;141659;-69
2022/11/10 21:29:45;;;;;;;20.20;10.70;;;;;;;6.65;80.71;101006.39;210861;1282;139955;-69
2022/11/10 21:34:49;;;;;;;18.50;11.50;;;;;;;6.57;80.73;101009.45;210739;1284;140271;-70
2022/11/10 21:39:53;;;;;;;18.20;12.50;;;;;;;6.48;80.43;101016.06;209447;1282;140924;-68
2022/11/10 21:44:56;;;;;;;19.00;13.50;;;;;;;6.38;80.39;101015.08;210734;1292;245901;-69
2022/11/10 21:50:00;;;;;;;16.80;12.00;;;;;;;6.27;80.20;101017.77;210834;1292;140760;-71
2022/11/10 21:55:05;;;;;;;13.80;10.30;;;;;;;6.12;80.11;101020.80;210725;1292;141058;-68
2022/11/10 22:00:11;;;;;;;17.30;12.20;;;;;;;5.93;80.16;101015.91;210645;1292;140608;-71
2022/11/10 22:05:16;;;;;;;16.00;10.80;;;;;;;5.87;80.44;101023.84;210645;1293;140568;-70
2022/11/10 22:21:06;;;;;;;21.10;12.80;;;;;;;5.61;80.20;101037.28;210960;1292;141231;-65
2022/11/10 22:26:10;;;;;;;20.90;12.80;;;;;;;5.51;80.08;101041.62;209591;1292;141172;-68
2022/11/10 22:31:14;;;;;;;19.90;11.50;;;;;;;5.43;80.17;101044.13;209719;1292;140351;-68
2022/11/10 22:36:20;;;;;;;15.00;12.70;;;;;;;5.38;80.03;101043.51;210003;1292;140675;-68
2022/11/10 22:46:52;;;;;;;15.80;10.20;;;;;;;5.24;80.32;101049.30;208853;1285;244022;-70
2022/11/10 22:51:56;;;;;;;20.90;9.30;;;;;;;5.25;80.58;101065.27;210714;1299;140291;-73
2022/11/10 22:57:01;;;;;;;24.10;12.30;;;;;;;5.25;80.34;101071.58;210874;1291;140836;-71
2022/11/10 23:02:08;;;;;;;16.00;11.50;;;;;;;5.24;80.77;101074.92;210642;1291;141012;-69
2022/11/10 23:07:12;;;;;;;18.00;13.30;;;;;;;5.27;81.07;101086.94;210770;1290;139831;-70
2022/11/10 23:12:17;;;;;;;10.50;9.40;;;;;;;5.33;81.00;101091.54;210797;1292;140368;-72
2022/11/10 23:17:20;;;;;;;23.50;10.90;;;;;;;5.39;80.98;101092.85;210708;1292;140144;-72
2022/11/10 23:22:23;;;;;;;12.70;9.90;;;;;;;5.46;81.38;101094.70;210863;1291;140609;-71
2022/11/10 23:27:27;;;;;;;15.30;8.90;;;;;;;5.50;81.17;101101.37;210704;1298;140269;-72
2022/11/10 23:32:30;;;;;;;18.80;11.50;;;;;;;5.50;81.17;101108.25;210800;1292;139873;-74
2022/11/10 23:37:34;;;;;;;17.80;9.50;;;;;;;5.53;81.47;101111.40;210764;1297;141093;-77